sensor_id;sensor_type;location;lat;lon;timestamp;P1;durP1;ratioP1;P2;durP2;ratioP2
22937;SDS011;11634;42.734;23.298;2022-09-02T00:00:47;18.35;;;15.32;;
22937;SDS011;11634;42.734;23.298;2022-09-02T00:03:16;17.55;;;15.55;;
22937;SDS011;11634;42.734;23.298;2022-09-02T00:05:42;16.35;;;14.85;;
22937;SDS011;11634;42.734;23.298;2022-09-02T00:08:09;16.92;;;15.20;;
22937;SDS011;11634;42.734;23.298;2022-09-02T00:10:36;17.25;;;15.48;;
22937;SDS011;11634;42.734;23.298;2022-09-02T00:13:05;17.17;;;15.35;;
22937;SDS011;11634;42.734;23.298;2022-09-02T00:15:32;18.55;;;16.58;;
22937;SDS011;11634;42.734;23.298;2022-09-02T00:18:00;18.08;;;15.95;;
22937;SDS011;11634;42.734;23.298;2022-09-02T00:20:27;17.23;;;15.45;;
22937;SDS011;11634;42.734;23.298;2022-09-02T00:22:54;19.35;;;16.23;;
22937;SDS011;11634;42.734;23.298;2022-09-02T00:25:19;18.70;;;16.08;;
22937;SDS011;11634;42.734;23.298;2022-09-02T00:27:45;18.50;;;15.35;;
22937;SDS011;11634;42.734;23.298;2022-09-02T00:30:11;17.40;;;15.60;;
22937;SDS011;11634;42.734;23.298;2022-09-02T00:32:39;18.73;;;16.27;;
22937;SDS011;11634;42.734;23.298;2022-09-02T00:35:06;17.67;;;15.88;;
22937;SDS011;11634;42.734;23.298;2022-09-02T00:37:32;17.92;;;16.10;;
22937;SDS011;11634;42.734;23.298;2022-09-02T00:39:58;18.23;;;16.30;;
22937;SDS011;11634;42.734;23.298;2022-09-02T00:42:24;19.98;;;17.23;;
22937;SDS011;11634;42.734;23.298;2022-09-02T00:44:50;19.60;;;16.80;;
22937;SDS011;11634;42.734;23.298;2022-09-02T00:47:16;22.00;;;17.75;;
22937;SDS011;11634;42.734;23.298;2022-09-02T00:49:45;19.20;;;16.65;;
22937;SDS011;11634;42.734;23.298;2022-09-02T00:52:21;18.20;;;16.40;;
22937;SDS011;11634;42.734;23.298;2022-09-02T00:54:49;20.48;;;16.30;;
22937;SDS011;11634;42.734;23.298;2022-09-02T00:57:18;18.83;;;16.85;;
22937;SDS011;11634;42.734;23.298;2022-09-02T00:59:53;19.42;;;17.17;;
22937;SDS011;11634;42.734;23.298;2022-09-02T01:02:24;17.70;;;15.65;;
22937;SDS011;11634;42.734;23.298;2022-09-02T01:04:50;17.50;;;15.73;;
22937;SDS011;11634;42.734;23.298;2022-09-02T01:07:21;20.55;;;15.68;;
22937;SDS011;11634;42.734;23.298;2022-09-02T01:09:48;20.10;;;16.27;;
22937;SDS011;11634;42.734;23.298;2022-09-02T01:12:15;18.27;;;16.38;;
22937;SDS011;11634;42.734;23.298;2022-09-02T01:14:41;19.33;;;17.35;;
22937;SDS011;11634;42.734;23.298;2022-09-02T01:17:07;19.73;;;16.02;;
22937;SDS011;11634;42.734;23.298;2022-09-02T01:19:41;17.05;;;15.52;;
22937;SDS011;11634;42.734;23.298;2022-09-02T01:22:17;18.15;;;16.35;;
22937;SDS011;11634;42.734;23.298;2022-09-02T01:24:44;18.50;;;13.68;;
22937;SDS011;11634;42.734;23.298;2022-09-02T01:27:13;14.30;;;12.43;;
22937;SDS011;11634;42.734;23.298;2022-09-02T01:29:41;10.15;;;9.25;;
22937;SDS011;11634;42.734;23.298;2022-09-02T01:32:07;9.30;;;8.40;;
22937;SDS011;11634;42.734;23.298;2022-09-02T01:34:33;10.07;;;9.07;;
22937;SDS011;11634;42.734;23.298;2022-09-02T01:36:58;9.60;;;8.70;;
22937;SDS011;11634;42.734;23.298;2022-09-02T01:39:24;9.32;;;8.48;;
22937;SDS011;11634;42.734;23.298;2022-09-02T01:41:50;10.25;;;9.35;;
22937;SDS011;11634;42.734;23.298;2022-09-02T01:44:17;10.40;;;9.40;;
22937;SDS011;11634;42.734;23.298;2022-09-02T01:46:44;10.15;;;9.25;;
22937;SDS011;11634;42.734;23.298;2022-09-02T01:49:10;10.50;;;9.50;;
22937;SDS011;11634;42.734;23.298;2022-09-02T01:51:38;10.63;;;9.57;;
22937;SDS011;11634;42.734;23.298;2022-09-02T01:54:06;11.27;;;10.18;;
22937;SDS011;11634;42.734;23.298;2022-09-02T01:56:32;9.88;;;9.00;;
22937;SDS011;11634;42.734;23.298;2022-09-02T01:58:59;6.88;;;6.28;;
22937;SDS011;11634;42.734;23.298;2022-09-02T02:01:26;8.65;;;7.95;;
22937;SDS011;11634;42.734;23.298;2022-09-02T02:03:52;10.13;;;9.13;;
22937;SDS011;11634;42.734;23.298;2022-09-02T02:06:21;10.90;;;9.90;;
22937;SDS011;11634;42.734;23.298;2022-09-02T02:08:46;9.80;;;8.90;;
22937;SDS011;11634;42.734;23.298;2022-09-02T02:11:20;11.18;;;8.32;;
22937;SDS011;11634;42.734;23.298;2022-09-02T02:13:51;12.43;;;9.70;;
22937;SDS011;11634;42.734;23.298;2022-09-02T02:16:20;10.73;;;9.73;;
22937;SDS011;11634;42.734;23.298;2022-09-02T02:18:46;10.85;;;9.95;;
22937;SDS011;11634;42.734;23.298;2022-09-02T02:21:12;11.07;;;9.93;;
22937;SDS011;11634;42.734;23.298;2022-09-02T02:23:37;9.82;;;8.93;;
22937;SDS011;11634;42.734;23.298;2022-09-02T02:26:05;10.93;;;9.93;;
22937;SDS011;11634;42.734;23.298;2022-09-02T02:28:31;12.30;;;10.95;;
22937;SDS011;11634;42.734;23.298;2022-09-02T02:30:57;12.63;;;11.43;;
22937;SDS011;11634;42.734;23.298;2022-09-02T02:33:25;12.45;;;11.25;;
22937;SDS011;11634;42.734;23.298;2022-09-02T02:35:55;12.88;;;11.68;;
22937;SDS011;11634;42.734;23.298;2022-09-02T02:38:21;12.57;;;11.32;;
22937;SDS011;11634;42.734;23.298;2022-09-02T02:40:48;11.88;;;10.85;;
22937;SDS011;11634;42.734;23.298;2022-09-02T02:43:18;11.63;;;10.63;;
22937;SDS011;11634;42.734;23.298;2022-09-02T02:45:45;12.38;;;11.05;;
22937;SDS011;11634;42.734;23.298;2022-09-02T02:48:11;12.07;;;10.95;;
22937;SDS011;11634;42.734;23.298;2022-09-02T02:50:39;11.65;;;10.55;;
22937;SDS011;11634;42.734;23.298;2022-09-02T02:53:05;11.38;;;10.27;;
22937;SDS011;11634;42.734;23.298;2022-09-02T02:55:31;11.98;;;10.90;;
22937;SDS011;11634;42.734;23.298;2022-09-02T02:57:57;12.15;;;10.65;;
22937;SDS011;11634;42.734;23.298;2022-09-02T03:00:27;11.05;;;9.90;;
22937;SDS011;11634;42.734;23.298;2022-09-02T03:02:55;11.43;;;10.32;;
22937;SDS011;11634;42.734;23.298;2022-09-02T03:05:25;12.25;;;11.00;;
22937;SDS011;11634;42.734;23.298;2022-09-02T03:07:52;10.88;;;9.85;;
22937;SDS011;11634;42.734;23.298;2022-09-02T03:10:18;11.35;;;10.23;;
22937;SDS011;11634;42.734;23.298;2022-09-02T03:12:45;12.38;;;11.25;;
22937;SDS011;11634;42.734;23.298;2022-09-02T03:15:12;12.00;;;10.80;;
22937;SDS011;11634;42.734;23.298;2022-09-02T03:17:42;12.50;;;11.20;;
22937;SDS011;11634;42.734;23.298;2022-09-02T03:20:08;12.40;;;11.30;;
22937;SDS011;11634;42.734;23.298;2022-09-02T03:22:38;11.88;;;10.75;;
22937;SDS011;11634;42.734;23.298;2022-09-02T03:25:07;12.60;;;11.50;;
22937;SDS011;11634;42.734;23.298;2022-09-02T03:27:35;12.57;;;11.25;;
22937;SDS011;11634;42.734;23.298;2022-09-02T03:30:03;12.90;;;11.10;;
22937;SDS011;11634;42.734;23.298;2022-09-02T03:32:31;12.30;;;11.20;;
22937;SDS011;11634;42.734;23.298;2022-09-02T03:34:57;13.30;;;12.00;;
22937;SDS011;11634;42.734;23.298;2022-09-02T03:37:23;12.68;;;11.48;;
22937;SDS011;11634;42.734;23.298;2022-09-02T03:39:49;13.70;;;12.30;;
22937;SDS011;11634;42.734;23.298;2022-09-02T03:42:15;14.02;;;12.27;;
22937;SDS011;11634;42.734;23.298;2022-09-02T03:44:40;13.85;;;12.65;;
22937;SDS011;11634;42.734;23.298;2022-09-02T03:47:06;13.05;;;11.82;;
22937;SDS011;11634;42.734;23.298;2022-09-02T03:49:33;13.73;;;11.93;;
22937;SDS011;11634;42.734;23.298;2022-09-02T03:51:59;14.10;;;12.60;;
22937;SDS011;11634;42.734;23.298;2022-09-02T03:54:25;13.93;;;12.57;;
22937;SDS011;11634;42.734;23.298;2022-09-02T03:56:51;13.07;;;11.98;;
22937;SDS011;11634;42.734;23.298;2022-09-02T03:59:17;16.08;;;11.73;;
22937;SDS011;11634;42.734;23.298;2022-09-02T04:01:42;13.45;;;12.15;;
22937;SDS011;11634;42.734;23.298;2022-09-02T04:04:08;14.00;;;12.57;;
22937;SDS011;11634;42.734;23.298;2022-09-02T04:06:36;14.23;;;13.00;;
22937;SDS011;11634;42.734;23.298;2022-09-02T04:09:03;12.75;;;11.60;;
22937;SDS011;11634;42.734;23.298;2022-09-02T04:11:31;13.85;;;12.65;;
22937;SDS011;11634;42.734;23.298;2022-09-02T04:13:57;13.55;;;12.35;;
22937;SDS011;11634;42.734;23.298;2022-09-02T04:16:26;13.25;;;12.02;;
22937;SDS011;11634;42.734;23.298;2022-09-02T04:18:57;14.63;;;13.13;;
22937;SDS011;11634;42.734;23.298;2022-09-02T04:21:27;12.77;;;11.57;;
22937;SDS011;11634;42.734;23.298;2022-09-02T04:23:55;13.38;;;12.07;;
22937;SDS011;11634;42.734;23.298;2022-09-02T04:26:21;13.23;;;12.02;;
22937;SDS011;11634;42.734;23.298;2022-09-02T04:28:51;12.75;;;11.50;;
22937;SDS011;11634;42.734;23.298;2022-09-02T04:31:21;12.85;;;11.75;;
22937;SDS011;11634;42.734;23.298;2022-09-02T04:33:55;12.90;;;11.70;;
22937;SDS011;11634;42.734;23.298;2022-09-02T04:36:23;11.82;;;10.82;;
22937;SDS011;11634;42.734;23.298;2022-09-02T04:38:52;13.10;;;11.82;;
22937;SDS011;11634;42.734;23.298;2022-09-02T04:41:24;13.13;;;11.93;;
22937;SDS011;11634;42.734;23.298;2022-09-02T04:43:55;13.10;;;11.90;;
22937;SDS011;11634;42.734;23.298;2022-09-02T04:46:24;13.57;;;12.38;;
22937;SDS011;11634;42.734;23.298;2022-09-02T04:48:53;13.13;;;11.73;;
22937;SDS011;11634;42.734;23.298;2022-09-02T04:51:20;13.18;;;11.98;;
22937;SDS011;11634;42.734;23.298;2022-09-02T04:53:51;13.93;;;12.52;;
22937;SDS011;11634;42.734;23.298;2022-09-02T04:56:20;14.15;;;12.80;;
22937;SDS011;11634;42.734;23.298;2022-09-02T04:58:48;13.07;;;10.55;;
22937;SDS011;11634;42.734;23.298;2022-09-02T05:01:20;12.75;;;11.52;;
22937;SDS011;11634;42.734;23.298;2022-09-02T05:03:53;12.13;;;11.13;;
22937;SDS011;11634;42.734;23.298;2022-09-02T05:06:22;14.70;;;12.95;;
22937;SDS011;11634;42.734;23.298;2022-09-02T05:08:56;14.55;;;13.15;;
22937;SDS011;11634;42.734;23.298;2022-09-02T05:11:26;12.68;;;11.52;;
22937;SDS011;11634;42.734;23.298;2022-09-02T05:13:56;13.98;;;12.65;;
22937;SDS011;11634;42.734;23.298;2022-09-02T05:16:26;15.85;;;12.82;;
22937;SDS011;11634;42.734;23.298;2022-09-02T05:18:55;14.35;;;13.05;;
22937;SDS011;11634;42.734;23.298;2022-09-02T05:21:23;14.05;;;11.50;;
22937;SDS011;11634;42.734;23.298;2022-09-02T05:24:01;13.02;;;11.73;;
22937;SDS011;11634;42.734;23.298;2022-09-02T05:26:26;13.10;;;11.70;;
22937;SDS011;11634;42.734;23.298;2022-09-02T05:28:52;13.38;;;12.10;;
22937;SDS011;11634;42.734;23.298;2022-09-02T05:31:21;14.02;;;12.68;;
22937;SDS011;11634;42.734;23.298;2022-09-02T05:33:47;14.23;;;12.93;;
22937;SDS011;11634;42.734;23.298;2022-09-02T05:36:20;12.93;;;11.43;;
22937;SDS011;11634;42.734;23.298;2022-09-02T05:38:48;13.13;;;11.85;;
22937;SDS011;11634;42.734;23.298;2022-09-02T05:41:16;13.77;;;12.48;;
22937;SDS011;11634;42.734;23.298;2022-09-02T05:43:49;12.70;;;11.50;;
22937;SDS011;11634;42.734;23.298;2022-09-02T05:46:19;14.30;;;12.98;;
22937;SDS011;11634;42.734;23.298;2022-09-02T05:48:48;15.20;;;13.68;;
22937;SDS011;11634;42.734;23.298;2022-09-02T05:51:40;15.27;;;13.75;;
22937;SDS011;11634;42.734;23.298;2022-09-02T05:54:10;14.82;;;13.32;;
22937;SDS011;11634;42.734;23.298;2022-09-02T05:56:42;14.88;;;13.38;;
22937;SDS011;11634;42.734;23.298;2022-09-02T05:59:11;14.57;;;13.18;;
22937;SDS011;11634;42.734;23.298;2022-09-02T06:01:37;14.43;;;13.13;;
22937;SDS011;11634;42.734;23.298;2022-09-02T06:04:06;14.82;;;13.18;;
22937;SDS011;11634;42.734;23.298;2022-09-02T06:06:33;15.32;;;13.93;;
22937;SDS011;11634;42.734;23.298;2022-09-02T06:09:04;16.05;;;14.52;;
22937;SDS011;11634;42.734;23.298;2022-09-02T06:11:34;21.50;;;14.40;;
22937;SDS011;11634;42.734;23.298;2022-09-02T06:14:07;18.40;;;14.25;;
22937;SDS011;11634;42.734;23.298;2022-09-02T06:16:36;22.45;;;14.07;;
22937;SDS011;11634;42.734;23.298;2022-09-02T06:19:04;21.00;;;13.85;;
22937;SDS011;11634;42.734;23.298;2022-09-02T06:21:31;20.95;;;12.48;;
22937;SDS011;11634;42.734;23.298;2022-09-02T06:24:06;20.98;;;14.05;;
22937;SDS011;11634;42.734;23.298;2022-09-02T06:26:34;13.55;;;12.05;;
22937;SDS011;11634;42.734;23.298;2022-09-02T06:29:02;12.68;;;11.30;;
22937;SDS011;11634;42.734;23.298;2022-09-02T06:31:30;14.40;;;11.93;;
22937;SDS011;11634;42.734;23.298;2022-09-02T06:33:57;15.15;;;12.93;;
22937;SDS011;11634;42.734;23.298;2022-09-02T06:36:29;12.73;;;11.48;;
22937;SDS011;11634;42.734;23.298;2022-09-02T06:38:58;12.02;;;10.85;;
22937;SDS011;11634;42.734;23.298;2022-09-02T06:41:28;13.07;;;11.73;;
22937;SDS011;11634;42.734;23.298;2022-09-02T06:44:00;13.75;;;10.88;;
22937;SDS011;11634;42.734;23.298;2022-09-02T06:46:30;13.27;;;11.43;;
22937;SDS011;11634;42.734;23.298;2022-09-02T06:49:00;12.82;;;11.63;;
22937;SDS011;11634;42.734;23.298;2022-09-02T06:51:28;13.45;;;11.55;;
22937;SDS011;11634;42.734;23.298;2022-09-02T06:53:58;12.55;;;11.45;;
22937;SDS011;11634;42.734;23.298;2022-09-02T06:56:29;13.05;;;11.52;;
22937;SDS011;11634;42.734;23.298;2022-09-02T06:59:01;13.07;;;11.77;;
22937;SDS011;11634;42.734;23.298;2022-09-02T07:01:50;13.70;;;11.18;;
22937;SDS011;11634;42.734;23.298;2022-09-02T07:04:18;13.32;;;11.93;;
22937;SDS011;11634;42.734;23.298;2022-09-02T07:07:05;13.93;;;12.27;;
22937;SDS011;11634;42.734;23.298;2022-09-02T07:09:37;12.80;;;11.60;;
22937;SDS011;11634;42.734;23.298;2022-09-02T07:12:09;13.18;;;11.45;;
22937;SDS011;11634;42.734;23.298;2022-09-02T07:14:40;13.52;;;12.13;;
22937;SDS011;11634;42.734;23.298;2022-09-02T07:17:07;13.02;;;11.75;;
22937;SDS011;11634;42.734;23.298;2022-09-02T07:19:53;13.60;;;12.00;;
22937;SDS011;11634;42.734;23.298;2022-09-02T07:22:22;13.43;;;12.07;;
22937;SDS011;11634;42.734;23.298;2022-09-02T07:24:48;13.85;;;12.45;;
22937;SDS011;11634;42.734;23.298;2022-09-02T07:27:14;13.50;;;12.20;;
22937;SDS011;11634;42.734;23.298;2022-09-02T07:29:40;14.10;;;12.77;;
22937;SDS011;11634;42.734;23.298;2022-09-02T07:32:09;13.23;;;11.85;;
22937;SDS011;11634;42.734;23.298;2022-09-02T07:34:35;13.00;;;11.52;;
22937;SDS011;11634;42.734;23.298;2022-09-02T07:37:01;13.13;;;11.50;;
22937;SDS011;11634;42.734;23.298;2022-09-02T07:39:26;12.18;;;11.02;;
22937;SDS011;11634;42.734;23.298;2022-09-02T07:41:52;10.95;;;9.95;;
22937;SDS011;11634;42.734;23.298;2022-09-02T07:44:20;13.77;;;12.05;;
22937;SDS011;11634;42.734;23.298;2022-09-02T07:46:48;12.98;;;11.75;;
22937;SDS011;11634;42.734;23.298;2022-09-02T07:49:16;15.25;;;10.63;;
22937;SDS011;11634;42.734;23.298;2022-09-02T07:51:44;14.50;;;11.80;;
22937;SDS011;11634;42.734;23.298;2022-09-02T07:54:16;14.93;;;13.43;;
22937;SDS011;11634;42.734;23.298;2022-09-02T07:56:43;13.20;;;11.90;;
22937;SDS011;11634;42.734;23.298;2022-09-02T07:59:10;13.30;;;11.90;;
22937;SDS011;11634;42.734;23.298;2022-09-02T08:01:38;13.88;;;11.45;;
22937;SDS011;11634;42.734;23.298;2022-09-02T08:04:04;12.90;;;11.68;;
22937;SDS011;11634;42.734;23.298;2022-09-02T08:06:31;12.38;;;11.20;;
22937;SDS011;11634;42.734;23.298;2022-09-02T08:08:58;12.15;;;10.85;;
22937;SDS011;11634;42.734;23.298;2022-09-02T08:11:24;11.73;;;10.40;;
22937;SDS011;11634;42.734;23.298;2022-09-02T08:13:50;13.57;;;10.15;;
22937;SDS011;11634;42.734;23.298;2022-09-02T08:16:16;10.27;;;8.63;;
22937;SDS011;11634;42.734;23.298;2022-09-02T08:18:42;9.93;;;8.75;;
22937;SDS011;11634;42.734;23.298;2022-09-02T08:21:08;11.25;;;9.73;;
22937;SDS011;11634;42.734;23.298;2022-09-02T08:23:34;11.73;;;10.18;;
22937;SDS011;11634;42.734;23.298;2022-09-02T08:26:00;10.38;;;9.32;;
22937;SDS011;11634;42.734;23.298;2022-09-02T08:28:26;11.82;;;9.35;;
22937;SDS011;11634;42.734;23.298;2022-09-02T08:30:52;9.90;;;8.90;;
22937;SDS011;11634;42.734;23.298;2022-09-02T08:33:21;8.07;;;7.38;;
22937;SDS011;11634;42.734;23.298;2022-09-02T08:35:46;8.45;;;7.40;;
22937;SDS011;11634;42.734;23.298;2022-09-02T08:38:12;9.00;;;7.53;;
22937;SDS011;11634;42.734;23.298;2022-09-02T08:40:39;8.60;;;7.90;;
22937;SDS011;11634;42.734;23.298;2022-09-02T08:43:16;8.93;;;8.07;;
22937;SDS011;11634;42.734;23.298;2022-09-02T08:45:52;9.48;;;7.53;;
22937;SDS011;11634;42.734;23.298;2022-09-02T08:48:42;10.57;;;8.50;;
22937;SDS011;11634;42.734;23.298;2022-09-02T08:51:18;11.00;;;7.90;;
22937;SDS011;11634;42.734;23.298;2022-09-02T08:53:56;7.38;;;6.68;;
22937;SDS011;11634;42.734;23.298;2022-09-02T08:56:28;8.57;;;7.75;;
22937;SDS011;11634;42.734;23.298;2022-09-02T08:58:55;7.97;;;7.28;;
22937;SDS011;11634;42.734;23.298;2022-09-02T09:07:20;7.82;;;7.13;;
22937;SDS011;11634;42.734;23.298;2022-09-02T09:10:21;7.97;;;7.20;;
22937;SDS011;11634;42.734;23.298;2022-09-02T09:13:03;9.18;;;7.65;;
22937;SDS011;11634;42.734;23.298;2022-09-02T09:18:06;9.40;;;8.40;;
22937;SDS011;11634;42.734;23.298;2022-09-02T09:20:43;8.57;;;7.40;;
22937;SDS011;11634;42.734;23.298;2022-09-02T09:26:03;9.32;;;7.75;;
22937;SDS011;11634;42.734;23.298;2022-09-02T09:28:42;9.02;;;8.13;;
22937;SDS011;11634;42.734;23.298;2022-09-02T09:31:20;8.65;;;7.82;;
22937;SDS011;11634;42.734;23.298;2022-09-02T09:33:58;8.52;;;7.72;;
22937;SDS011;11634;42.734;23.298;2022-09-02T09:39:24;10.50;;;7.65;;
22937;SDS011;11634;42.734;23.298;2022-09-02T09:44:43;8.52;;;7.25;;
22937;SDS011;11634;42.734;23.298;2022-09-02T09:47:14;8.48;;;7.60;;
22937;SDS011;11634;42.734;23.298;2022-09-02T09:49:44;8.30;;;7.50;;
22937;SDS011;11634;42.734;23.298;2022-09-02T09:52:20;8.60;;;7.70;;
22937;SDS011;11634;42.734;23.298;2022-09-02T09:55:10;10.55;;;8.40;;
22937;SDS011;11634;42.734;23.298;2022-09-02T09:57:39;12.23;;;8.82;;
22937;SDS011;11634;42.734;23.298;2022-09-02T10:00:12;9.77;;;8.77;;
22937;SDS011;11634;42.734;23.298;2022-09-02T10:02:47;9.88;;;8.85;;
22937;SDS011;11634;42.734;23.298;2022-09-02T10:05:16;13.38;;;8.85;;
22937;SDS011;11634;42.734;23.298;2022-09-02T10:07:54;9.75;;;8.75;;
22937;SDS011;11634;42.734;23.298;2022-09-02T10:10:22;10.32;;;9.20;;
22937;SDS011;11634;42.734;23.298;2022-09-02T10:12:51;10.27;;;9.10;;
22937;SDS011;11634;42.734;23.298;2022-09-02T10:29:24;9.23;;;8.32;;
22937;SDS011;11634;42.734;23.298;2022-09-02T10:32:14;8.52;;;7.80;;
22937;SDS011;11634;42.734;23.298;2022-09-02T10:40:59;9.65;;;8.75;;
22937;SDS011;11634;42.734;23.298;2022-09-02T10:46:59;8.93;;;8.02;;
22937;SDS011;11634;42.734;23.298;2022-09-02T11:01:27;9.95;;;8.98;;
22937;SDS011;11634;42.734;23.298;2022-09-02T11:04:02;9.57;;;8.65;;
22937;SDS011;11634;42.734;23.298;2022-09-02T11:06:59;11.85;;;9.70;;
22937;SDS011;11634;42.734;23.298;2022-09-02T11:12:21;10.90;;;9.80;;
22937;SDS011;11634;42.734;23.298;2022-09-02T11:15:23;9.32;;;8.52;;
22937;SDS011;11634;42.734;23.298;2022-09-02T11:23:54;11.88;;;10.20;;
22937;SDS011;11634;42.734;23.298;2022-09-02T11:26:31;12.23;;;10.93;;
22937;SDS011;11634;42.734;23.298;2022-09-02T11:36:51;10.98;;;9.98;;
22937;SDS011;11634;42.734;23.298;2022-09-02T11:44:44;11.05;;;9.88;;
22937;SDS011;11634;42.734;23.298;2022-09-02T11:53:01;11.73;;;10.63;;
22937;SDS011;11634;42.734;23.298;2022-09-02T11:55:41;11.93;;;10.88;;
22937;SDS011;11634;42.734;23.298;2022-09-02T12:01:02;12.45;;;11.45;;
22937;SDS011;11634;42.734;23.298;2022-09-02T12:03:30;12.43;;;11.20;;
22937;SDS011;11634;42.734;23.298;2022-09-02T12:06:09;12.93;;;11.70;;
22937;SDS011;11634;42.734;23.298;2022-09-02T12:11:08;12.73;;;11.60;;
22937;SDS011;11634;42.734;23.298;2022-09-02T12:13:54;12.77;;;11.50;;
22937;SDS011;11634;42.734;23.298;2022-09-02T12:21:32;13.60;;;12.30;;
22937;SDS011;11634;42.734;23.298;2022-09-02T12:24:07;14.05;;;12.65;;
22937;SDS011;11634;42.734;23.298;2022-09-02T12:36:50;14.73;;;12.55;;
22937;SDS011;11634;42.734;23.298;2022-09-02T12:52:48;14.00;;;12.77;;
22937;SDS011;11634;42.734;23.298;2022-09-02T12:55:26;14.40;;;13.05;;
22937;SDS011;11634;42.734;23.298;2022-09-02T12:58:19;14.48;;;12.98;;
22937;SDS011;11634;42.734;23.298;2022-09-02T13:15:08;15.48;;;13.88;;
22937;SDS011;11634;42.734;23.298;2022-09-02T13:20:55;14.50;;;13.07;;
22937;SDS011;11634;42.734;23.298;2022-09-02T13:29:10;16.05;;;14.48;;
22937;SDS011;11634;42.734;23.298;2022-09-02T13:31:40;16.88;;;15.23;;
22937;SDS011;11634;42.734;23.298;2022-09-02T13:34:11;15.60;;;14.10;;
22937;SDS011;11634;42.734;23.298;2022-09-02T13:36:42;14.82;;;13.35;;
22937;SDS011;11634;42.734;23.298;2022-09-02T13:39:14;15.95;;;13.93;;
22937;SDS011;11634;42.734;23.298;2022-09-02T13:41:45;15.63;;;14.02;;
22937;SDS011;11634;42.734;23.298;2022-09-02T13:44:21;16.35;;;14.85;;
22937;SDS011;11634;42.734;23.298;2022-09-02T13:46:53;16.70;;;15.00;;
22937;SDS011;11634;42.734;23.298;2022-09-02T13:49:34;17.65;;;15.43;;
22937;SDS011;11634;42.734;23.298;2022-09-02T13:52:04;20.67;;;18.58;;
22937;SDS011;11634;42.734;23.298;2022-09-02T13:54:42;22.25;;;18.58;;
22937;SDS011;11634;42.734;23.298;2022-09-02T13:57:11;23.05;;;20.35;;
22937;SDS011;11634;42.734;23.298;2022-09-02T13:59:48;23.73;;;19.25;;
22937;SDS011;11634;42.734;23.298;2022-09-02T14:02:19;22.77;;;20.48;;
22937;SDS011;11634;42.734;23.298;2022-09-02T14:05:03;24.33;;;21.92;;
22937;SDS011;11634;42.734;23.298;2022-09-02T14:07:45;28.90;;;24.55;;
22937;SDS011;11634;42.734;23.298;2022-09-02T14:10:25;27.13;;;24.20;;
22937;SDS011;11634;42.734;23.298;2022-09-02T14:12:55;29.15;;;25.48;;
22937;SDS011;11634;42.734;23.298;2022-09-02T14:15:32;28.95;;;25.80;;
22937;SDS011;11634;42.734;23.298;2022-09-02T14:18:15;28.70;;;23.48;;
22937;SDS011;11634;42.734;23.298;2022-09-02T14:20:59;29.65;;;26.45;;
22937;SDS011;11634;42.734;23.298;2022-09-02T14:23:51;34.00;;;29.23;;
22937;SDS011;11634;42.734;23.298;2022-09-02T14:26:26;33.40;;;29.65;;
22937;SDS011;11634;42.734;23.298;2022-09-02T14:29:07;30.67;;;27.48;;
22937;SDS011;11634;42.734;23.298;2022-09-02T14:31:37;32.92;;;29.45;;
22937;SDS011;11634;42.734;23.298;2022-09-02T14:34:20;31.88;;;28.30;;
22937;SDS011;11634;42.734;23.298;2022-09-02T14:37:11;24.38;;;21.85;;
22937;SDS011;11634;42.734;23.298;2022-09-02T14:40:14;26.13;;;23.33;;
22937;SDS011;11634;42.734;23.298;2022-09-02T14:42:46;15.98;;;12.82;;
22937;SDS011;11634;42.734;23.298;2022-09-02T14:45:51;14.52;;;12.00;;
22937;SDS011;11634;42.734;23.298;2022-09-02T14:48:18;21.52;;;13.32;;
22937;SDS011;11634;42.734;23.298;2022-09-02T14:50:49;12.48;;;11.23;;
22937;SDS011;11634;42.734;23.298;2022-09-02T14:53:22;11.18;;;10.07;;
22937;SDS011;11634;42.734;23.298;2022-09-02T14:55:54;10.65;;;9.40;;
22937;SDS011;11634;42.734;23.298;2022-09-02T14:58:26;10.38;;;9.27;;
22937;SDS011;11634;42.734;23.298;2022-09-02T15:00:55;8.98;;;8.05;;
22937;SDS011;11634;42.734;23.298;2022-09-02T15:03:25;9.45;;;8.55;;
22937;SDS011;11634;42.734;23.298;2022-09-02T15:05:51;9.90;;;8.88;;
22937;SDS011;11634;42.734;23.298;2022-09-02T15:08:19;10.60;;;9.65;;
22937;SDS011;11634;42.734;23.298;2022-09-02T15:10:46;11.27;;;9.27;;
22937;SDS011;11634;42.734;23.298;2022-09-02T15:13:24;8.88;;;8.00;;
22937;SDS011;11634;42.734;23.298;2022-09-02T15:15:52;8.50;;;7.63;;
22937;SDS011;11634;42.734;23.298;2022-09-02T15:18:19;9.82;;;8.77;;
22937;SDS011;11634;42.734;23.298;2022-09-02T15:20:47;10.00;;;9.00;;
22937;SDS011;11634;42.734;23.298;2022-09-02T15:23:19;10.32;;;9.32;;
22937;SDS011;11634;42.734;23.298;2022-09-02T15:25:45;10.93;;;9.90;;
22937;SDS011;11634;42.734;23.298;2022-09-02T15:28:11;12.20;;;10.55;;
22937;SDS011;11634;42.734;23.298;2022-09-02T15:30:37;12.18;;;10.73;;
22937;SDS011;11634;42.734;23.298;2022-09-02T15:33:05;13.05;;;11.75;;
22937;SDS011;11634;42.734;23.298;2022-09-02T15:35:42;14.32;;;12.75;;
22937;SDS011;11634;42.734;23.298;2022-09-02T15:38:14;12.57;;;11.38;;
22937;SDS011;11634;42.734;23.298;2022-09-02T15:40:43;10.95;;;9.95;;
22937;SDS011;11634;42.734;23.298;2022-09-02T15:43:11;16.25;;;14.60;;
22937;SDS011;11634;42.734;23.298;2022-09-02T15:45:46;15.82;;;14.23;;
22937;SDS011;11634;42.734;23.298;2022-09-02T15:48:16;16.33;;;14.80;;
22937;SDS011;11634;42.734;23.298;2022-09-02T15:50:42;16.40;;;14.80;;
22937;SDS011;11634;42.734;23.298;2022-09-02T15:53:11;16.27;;;14.52;;
22937;SDS011;11634;42.734;23.298;2022-09-02T15:55:39;16.55;;;15.00;;
22937;SDS011;11634;42.734;23.298;2022-09-02T15:58:06;14.70;;;13.23;;
22937;SDS011;11634;42.734;23.298;2022-09-02T16:00:32;14.40;;;12.90;;
22937;SDS011;11634;42.734;23.298;2022-09-02T16:02:59;18.02;;;13.93;;
22937;SDS011;11634;42.734;23.298;2022-09-02T16:05:29;15.23;;;13.63;;
22937;SDS011;11634;42.734;23.298;2022-09-02T16:07:56;13.50;;;12.10;;
22937;SDS011;11634;42.734;23.298;2022-09-02T16:10:22;10.93;;;9.80;;
22937;SDS011;11634;42.734;23.298;2022-09-02T16:12:47;10.95;;;9.55;;
22937;SDS011;11634;42.734;23.298;2022-09-02T16:15:18;9.05;;;8.25;;
22937;SDS011;11634;42.734;23.298;2022-09-02T16:17:44;8.05;;;7.25;;
22937;SDS011;11634;42.734;23.298;2022-09-02T16:20:10;7.93;;;6.57;;
22937;SDS011;11634;42.734;23.298;2022-09-02T16:22:40;8.68;;;7.63;;
22937;SDS011;11634;42.734;23.298;2022-09-02T16:25:06;8.75;;;7.72;;
22937;SDS011;11634;42.734;23.298;2022-09-02T16:27:32;10.95;;;7.90;;
22937;SDS011;11634;42.734;23.298;2022-09-02T16:30:19;9.27;;;8.13;;
22937;SDS011;11634;42.734;23.298;2022-09-02T16:32:45;9.98;;;8.90;;
22937;SDS011;11634;42.734;23.298;2022-09-02T16:35:11;9.15;;;8.35;;
22937;SDS011;11634;42.734;23.298;2022-09-02T16:37:37;9.48;;;8.18;;
22937;SDS011;11634;42.734;23.298;2022-09-02T16:40:03;9.75;;;8.65;;
22937;SDS011;11634;42.734;23.298;2022-09-02T16:42:29;8.38;;;7.57;;
22937;SDS011;11634;42.734;23.298;2022-09-02T16:44:55;9.48;;;7.25;;
22937;SDS011;11634;42.734;23.298;2022-09-02T16:47:21;9.48;;;8.48;;
22937;SDS011;11634;42.734;23.298;2022-09-02T16:49:46;8.27;;;7.47;;
22937;SDS011;11634;42.734;23.298;2022-09-02T16:52:13;9.13;;;8.20;;